Aviation Digital Data Service (ADDS)

Output produced by METARs form (0241 UTC 24 July 2017)
found at http://www.aviationweather.gov/adds/metars/
 
KUES 240226Z 2402/2424 06011KT P6SM BKN025 
     FM240600 01005KT P6SM BKN020 
     FM241500 02009KT P6SM BKN025 
     FM241700 02009KT P6SM BKN045 
     FM242100 04008KT P6SM SCT090
       
KUIN 232320Z 2400/2424 30007KT P6SM SCT060 
     FM240300 36006KT P6SM FEW200 
     FM241600 01006KT P6SM FEW040
       
KUKI 232346Z 2400/2424 14011KT P6SM SKC 
     FM240300 16004KT P6SM SKC 
     FM241900 15009KT P6SM SKC
       
KUNV 240228Z 2402/2424 15006KT P6SM SCT019 SCT035 SCT050 
     FM240300 25004KT P6SM VCSH BKN035 
     TEMPO 2403/2407 4SM TS BKN025CB 
     FM240700 24005KT 4SM BR OVC015 
     FM241100 27008KT 4SM BR OVC003 
     FM241400 28010KT P6SM BKN015
       
KUTS 232330Z 2400/2424 19005KT P6SM VCSH FEW070 BKN250 
     FM240300 20005KT P6SM SCT180 BKN250 
     FM241400 21010KT P6SM BKN025 
     FM241600 22012KT P6SM FEW025 FEW060 
     FM241900 19011KT P6SM FEW060